sensor_id;sensor_type;location;lat;lon;timestamp;P1;durP1;ratioP1;P2;durP2;ratioP2
26600;SDS011;14241;49.260;10.496;2023-06-14T00:02:02;6.80;;;4.05;;
26600;SDS011;14241;49.260;10.496;2023-06-14T00:04:27;7.43;;;3.65;;
26600;SDS011;14241;49.260;10.496;2023-06-14T00:06:53;5.32;;;3.33;;
26600;SDS011;14241;49.260;10.496;2023-06-14T00:09:21;4.25;;;3.42;;
26600;SDS011;14241;49.260;10.496;2023-06-14T00:11:47;6.03;;;3.53;;
26600;SDS011;14241;49.260;10.496;2023-06-14T00:14:12;4.87;;;3.40;;
26600;SDS011;14241;49.260;10.496;2023-06-14T00:16:37;5.10;;;3.10;;
26600;SDS011;14241;49.260;10.496;2023-06-14T00:19:03;5.10;;;3.50;;
26600;SDS011;14241;49.260;10.496;2023-06-14T00:21:30;6.55;;;3.45;;
26600;SDS011;14241;49.260;10.496;2023-06-14T00:23:55;6.63;;;3.17;;
26600;SDS011;14241;49.260;10.496;2023-06-14T00:26:21;6.90;;;3.55;;
26600;SDS011;14241;49.260;10.496;2023-06-14T00:28:46;8.02;;;3.65;;
26600;SDS011;14241;49.260;10.496;2023-06-14T00:31:11;6.33;;;3.20;;
26600;SDS011;14241;49.260;10.496;2023-06-14T00:33:36;6.20;;;3.42;;
26600;SDS011;14241;49.260;10.496;2023-06-14T00:36:02;4.88;;;3.63;;
26600;SDS011;14241;49.260;10.496;2023-06-14T00:38:27;5.15;;;3.35;;
26600;SDS011;14241;49.260;10.496;2023-06-14T00:40:52;4.90;;;3.47;;
26600;SDS011;14241;49.260;10.496;2023-06-14T00:43:17;5.50;;;3.20;;
26600;SDS011;14241;49.260;10.496;2023-06-14T00:45:42;8.43;;;3.47;;
26600;SDS011;14241;49.260;10.496;2023-06-14T00:48:09;6.30;;;3.28;;
26600;SDS011;14241;49.260;10.496;2023-06-14T00:50:36;6.68;;;3.40;;
26600;SDS011;14241;49.260;10.496;2023-06-14T00:53:01;5.28;;;3.35;;
26600;SDS011;14241;49.260;10.496;2023-06-14T00:55:27;5.10;;;3.72;;
26600;SDS011;14241;49.260;10.496;2023-06-14T00:57:53;6.07;;;4.07;;
26600;SDS011;14241;49.260;10.496;2023-06-14T01:00:18;8.75;;;3.65;;
26600;SDS011;14241;49.260;10.496;2023-06-14T01:02:43;5.07;;;3.75;;
26600;SDS011;14241;49.260;10.496;2023-06-14T01:05:09;4.00;;;3.60;;
26600;SDS011;14241;49.260;10.496;2023-06-14T01:07:49;5.50;;;4.05;;
26600;SDS011;14241;49.260;10.496;2023-06-14T01:10:29;4.22;;;3.70;;
26600;SDS011;14241;49.260;10.496;2023-06-14T01:15:29;4.05;;;3.58;;
26600;SDS011;14241;49.260;10.496;2023-06-14T01:17:55;10.80;;;3.80;;
26600;SDS011;14241;49.260;10.496;2023-06-14T01:20:28;6.03;;;4.18;;
26600;SDS011;14241;49.260;10.496;2023-06-14T01:22:53;5.30;;;3.38;;
26600;SDS011;14241;49.260;10.496;2023-06-14T01:25:19;4.63;;;3.47;;
26600;SDS011;14241;49.260;10.496;2023-06-14T01:28:01;7.43;;;3.95;;
26600;SDS011;14241;49.260;10.496;2023-06-14T01:30:27;6.13;;;3.70;;
26600;SDS011;14241;49.260;10.496;2023-06-14T01:32:54;4.43;;;3.40;;
26600;SDS011;14241;49.260;10.496;2023-06-14T01:35:21;6.53;;;3.90;;
26600;SDS011;14241;49.260;10.496;2023-06-14T01:37:46;5.22;;;3.88;;
26600;SDS011;14241;49.260;10.496;2023-06-14T01:40:12;5.20;;;3.47;;
26600;SDS011;14241;49.260;10.496;2023-06-14T01:42:37;6.13;;;3.53;;
26600;SDS011;14241;49.260;10.496;2023-06-14T01:45:06;7.88;;;3.63;;
26600;SDS011;14241;49.260;10.496;2023-06-14T01:47:32;8.07;;;4.00;;
26600;SDS011;14241;49.260;10.496;2023-06-14T01:49:58;5.47;;;3.83;;
26600;SDS011;14241;49.260;10.496;2023-06-14T01:52:23;7.75;;;3.92;;
26600;SDS011;14241;49.260;10.496;2023-06-14T01:54:49;8.65;;;4.18;;
26600;SDS011;14241;49.260;10.496;2023-06-14T01:57:15;5.55;;;3.75;;
26600;SDS011;14241;49.260;10.496;2023-06-14T01:59:40;4.78;;;4.22;;
26600;SDS011;14241;49.260;10.496;2023-06-14T02:02:05;8.73;;;3.60;;
26600;SDS011;14241;49.260;10.496;2023-06-14T02:04:30;9.43;;;4.00;;
26600;SDS011;14241;49.260;10.496;2023-06-14T02:06:55;5.73;;;4.50;;
26600;SDS011;14241;49.260;10.496;2023-06-14T02:09:21;4.13;;;3.53;;
26600;SDS011;14241;49.260;10.496;2023-06-14T02:11:46;6.78;;;4.20;;
26600;SDS011;14241;49.260;10.496;2023-06-14T02:14:11;4.72;;;3.85;;
26600;SDS011;14241;49.260;10.496;2023-06-14T02:16:37;4.25;;;3.85;;
26600;SDS011;14241;49.260;10.496;2023-06-14T02:19:04;5.30;;;3.85;;
26600;SDS011;14241;49.260;10.496;2023-06-14T02:21:29;6.82;;;3.88;;
26600;SDS011;14241;49.260;10.496;2023-06-14T02:23:54;5.82;;;4.03;;
26600;SDS011;14241;49.260;10.496;2023-06-14T02:26:20;4.87;;;4.33;;
26600;SDS011;14241;49.260;10.496;2023-06-14T02:28:45;5.05;;;4.20;;
26600;SDS011;14241;49.260;10.496;2023-06-14T02:31:10;6.63;;;3.77;;
26600;SDS011;14241;49.260;10.496;2023-06-14T02:33:35;9.10;;;4.10;;
26600;SDS011;14241;49.260;10.496;2023-06-14T02:36:01;4.30;;;3.90;;
26600;SDS011;14241;49.260;10.496;2023-06-14T02:38:27;9.10;;;4.18;;
26600;SDS011;14241;49.260;10.496;2023-06-14T02:40:53;6.47;;;4.10;;
26600;SDS011;14241;49.260;10.496;2023-06-14T02:43:18;9.82;;;4.03;;
26600;SDS011;14241;49.260;10.496;2023-06-14T02:45:43;7.57;;;4.20;;
26600;SDS011;14241;49.260;10.496;2023-06-14T02:48:08;5.80;;;4.00;;
26600;SDS011;14241;49.260;10.496;2023-06-14T02:50:34;8.43;;;4.50;;
26600;SDS011;14241;49.260;10.496;2023-06-14T02:52:59;5.67;;;4.17;;
26600;SDS011;14241;49.260;10.496;2023-06-14T02:55:24;7.18;;;4.07;;
26600;SDS011;14241;49.260;10.496;2023-06-14T02:57:49;6.38;;;4.75;;
26600;SDS011;14241;49.260;10.496;2023-06-14T03:00:15;8.50;;;4.05;;
26600;SDS011;14241;49.260;10.496;2023-06-14T03:02:40;6.43;;;4.13;;
26600;SDS011;14241;49.260;10.496;2023-06-14T03:05:08;6.18;;;3.92;;
26600;SDS011;14241;49.260;10.496;2023-06-14T03:07:33;7.28;;;4.32;;
26600;SDS011;14241;49.260;10.496;2023-06-14T03:09:59;8.30;;;4.30;;
26600;SDS011;14241;49.260;10.496;2023-06-14T03:12:24;5.68;;;4.13;;
26600;SDS011;14241;49.260;10.496;2023-06-14T03:14:50;9.52;;;4.10;;
26600;SDS011;14241;49.260;10.496;2023-06-14T03:17:16;10.70;;;4.50;;
26600;SDS011;14241;49.260;10.496;2023-06-14T03:19:42;8.00;;;4.53;;
26600;SDS011;14241;49.260;10.496;2023-06-14T03:22:07;8.18;;;3.92;;
26600;SDS011;14241;49.260;10.496;2023-06-14T03:24:33;5.78;;;3.83;;
26600;SDS011;14241;49.260;10.496;2023-06-14T03:27:01;7.15;;;4.32;;
26600;SDS011;14241;49.260;10.496;2023-06-14T03:29:27;6.53;;;4.30;;
26600;SDS011;14241;49.260;10.496;2023-06-14T03:31:59;9.43;;;4.67;;
26600;SDS011;14241;49.260;10.496;2023-06-14T03:34:24;8.05;;;4.50;;
26600;SDS011;14241;49.260;10.496;2023-06-14T03:36:50;7.88;;;4.82;;
26600;SDS011;14241;49.260;10.496;2023-06-14T03:39:15;6.40;;;4.13;;
26600;SDS011;14241;49.260;10.496;2023-06-14T03:41:40;4.50;;;3.97;;
26600;SDS011;14241;49.260;10.496;2023-06-14T03:44:06;7.07;;;4.20;;
26600;SDS011;14241;49.260;10.496;2023-06-14T03:46:31;5.03;;;4.40;;
26600;SDS011;14241;49.260;10.496;2023-06-14T03:48:56;9.70;;;4.67;;
26600;SDS011;14241;49.260;10.496;2023-06-14T03:51:22;9.73;;;5.07;;
26600;SDS011;14241;49.260;10.496;2023-06-14T03:53:47;7.57;;;4.78;;
26600;SDS011;14241;49.260;10.496;2023-06-14T03:56:13;6.35;;;4.50;;
26600;SDS011;14241;49.260;10.496;2023-06-14T03:58:38;7.72;;;4.15;;
26600;SDS011;14241;49.260;10.496;2023-06-14T04:01:03;5.77;;;4.53;;
26600;SDS011;14241;49.260;10.496;2023-06-14T04:03:28;6.00;;;4.57;;
26600;SDS011;14241;49.260;10.496;2023-06-14T04:05:54;6.97;;;4.00;;
26600;SDS011;14241;49.260;10.496;2023-06-14T04:08:21;6.97;;;4.43;;
26600;SDS011;14241;49.260;10.496;2023-06-14T04:10:47;5.53;;;4.25;;
26600;SDS011;14241;49.260;10.496;2023-06-14T04:13:12;6.22;;;4.30;;
26600;SDS011;14241;49.260;10.496;2023-06-14T04:15:38;6.43;;;4.45;;
26600;SDS011;14241;49.260;10.496;2023-06-14T04:18:08;5.15;;;4.10;;
26600;SDS011;14241;49.260;10.496;2023-06-14T04:20:33;6.28;;;4.47;;
26600;SDS011;14241;49.260;10.496;2023-06-14T04:23:10;6.10;;;3.92;;
26600;SDS011;14241;49.260;10.496;2023-06-14T04:25:37;7.47;;;4.40;;
26600;SDS011;14241;49.260;10.496;2023-06-14T04:28:02;8.27;;;5.07;;
26600;SDS011;14241;49.260;10.496;2023-06-14T04:30:28;7.40;;;3.85;;
26600;SDS011;14241;49.260;10.496;2023-06-14T04:32:56;7.22;;;4.32;;
26600;SDS011;14241;49.260;10.496;2023-06-14T04:35:22;5.65;;;4.10;;
26600;SDS011;14241;49.260;10.496;2023-06-14T04:37:49;9.75;;;4.13;;
26600;SDS011;14241;49.260;10.496;2023-06-14T04:40:14;6.03;;;4.10;;
26600;SDS011;14241;49.260;10.496;2023-06-14T04:42:39;6.65;;;4.03;;
26600;SDS011;14241;49.260;10.496;2023-06-14T04:45:05;6.82;;;3.92;;
26600;SDS011;14241;49.260;10.496;2023-06-14T04:47:32;7.00;;;4.28;;
26600;SDS011;14241;49.260;10.496;2023-06-14T04:49:57;6.78;;;4.10;;
26600;SDS011;14241;49.260;10.496;2023-06-14T04:52:23;8.70;;;4.15;;
26600;SDS011;14241;49.260;10.496;2023-06-14T04:54:51;6.50;;;3.80;;
26600;SDS011;14241;49.260;10.496;2023-06-14T04:57:17;8.65;;;4.22;;
26600;SDS011;14241;49.260;10.496;2023-06-14T04:59:43;6.80;;;4.22;;
26600;SDS011;14241;49.260;10.496;2023-06-14T05:02:09;5.15;;;4.18;;
26600;SDS011;14241;49.260;10.496;2023-06-14T05:04:35;7.55;;;4.03;;
26600;SDS011;14241;49.260;10.496;2023-06-14T05:07:04;5.80;;;3.92;;
26600;SDS011;14241;49.260;10.496;2023-06-14T05:09:31;4.07;;;3.50;;
26600;SDS011;14241;49.260;10.496;2023-06-14T05:11:57;11.18;;;4.30;;
26600;SDS011;14241;49.260;10.496;2023-06-14T05:14:23;5.90;;;4.15;;
26600;SDS011;14241;49.260;10.496;2023-06-14T05:16:48;6.68;;;3.92;;
26600;SDS011;14241;49.260;10.496;2023-06-14T05:19:14;5.68;;;3.67;;
26600;SDS011;14241;49.260;10.496;2023-06-14T05:21:39;9.63;;;4.00;;
26600;SDS011;14241;49.260;10.496;2023-06-14T05:24:04;4.93;;;3.70;;
26600;SDS011;14241;49.260;10.496;2023-06-14T05:26:30;6.45;;;3.60;;
26600;SDS011;14241;49.260;10.496;2023-06-14T05:28:56;4.65;;;3.70;;
26600;SDS011;14241;49.260;10.496;2023-06-14T05:31:22;4.65;;;3.90;;
26600;SDS011;14241;49.260;10.496;2023-06-14T05:33:47;10.48;;;4.35;;
26600;SDS011;14241;49.260;10.496;2023-06-14T05:36:12;6.70;;;4.40;;
26600;SDS011;14241;49.260;10.496;2023-06-14T05:38:37;8.50;;;4.77;;
26600;SDS011;14241;49.260;10.496;2023-06-14T05:41:02;7.70;;;4.30;;
26600;SDS011;14241;49.260;10.496;2023-06-14T05:43:28;9.43;;;4.63;;
26600;SDS011;14241;49.260;10.496;2023-06-14T05:45:53;5.47;;;4.13;;
26600;SDS011;14241;49.260;10.496;2023-06-14T05:48:18;11.23;;;4.00;;
26600;SDS011;14241;49.260;10.496;2023-06-14T05:50:43;5.60;;;3.83;;
26600;SDS011;14241;49.260;10.496;2023-06-14T05:53:08;4.63;;;3.70;;
26600;SDS011;14241;49.260;10.496;2023-06-14T05:55:34;6.90;;;3.80;;
26600;SDS011;14241;49.260;10.496;2023-06-14T05:58:00;4.55;;;3.88;;
26600;SDS011;14241;49.260;10.496;2023-06-14T06:00:25;6.03;;;3.75;;
26600;SDS011;14241;49.260;10.496;2023-06-14T06:02:50;5.53;;;3.80;;
26600;SDS011;14241;49.260;10.496;2023-06-14T06:05:16;6.30;;;3.90;;
26600;SDS011;14241;49.260;10.496;2023-06-14T06:07:41;7.97;;;3.53;;
26600;SDS011;14241;49.260;10.496;2023-06-14T06:10:07;4.28;;;3.35;;
26600;SDS011;14241;49.260;10.496;2023-06-14T06:12:32;6.65;;;3.95;;
26600;SDS011;14241;49.260;10.496;2023-06-14T06:14:58;9.80;;;3.50;;
26600;SDS011;14241;49.260;10.496;2023-06-14T06:17:23;6.32;;;3.85;;
26600;SDS011;14241;49.260;10.496;2023-06-14T06:19:48;7.30;;;3.73;;
26600;SDS011;14241;49.260;10.496;2023-06-14T06:22:13;9.80;;;3.70;;
26600;SDS011;14241;49.260;10.496;2023-06-14T06:24:39;6.25;;;3.78;;
26600;SDS011;14241;49.260;10.496;2023-06-14T06:27:04;4.63;;;3.50;;
26600;SDS011;14241;49.260;10.496;2023-06-14T06:29:29;4.57;;;3.75;;
26600;SDS011;14241;49.260;10.496;2023-06-14T06:31:54;4.40;;;3.70;;
26600;SDS011;14241;49.260;10.496;2023-06-14T06:34:21;6.10;;;3.65;;
26600;SDS011;14241;49.260;10.496;2023-06-14T06:36:46;4.25;;;3.85;;
26600;SDS011;14241;49.260;10.496;2023-06-14T06:39:11;5.20;;;3.60;;
26600;SDS011;14241;49.260;10.496;2023-06-14T06:41:37;6.97;;;3.70;;
26600;SDS011;14241;49.260;10.496;2023-06-14T06:44:04;4.43;;;3.38;;
26600;SDS011;14241;49.260;10.496;2023-06-14T06:46:30;7.35;;;3.90;;
26600;SDS011;14241;49.260;10.496;2023-06-14T06:48:55;6.32;;;3.92;;
26600;SDS011;14241;49.260;10.496;2023-06-14T06:51:20;5.43;;;4.03;;
26600;SDS011;14241;49.260;10.496;2023-06-14T06:53:48;5.33;;;3.50;;
26600;SDS011;14241;49.260;10.496;2023-06-14T06:56:16;6.85;;;3.90;;
26600;SDS011;14241;49.260;10.496;2023-06-14T06:58:42;8.87;;;3.43;;
26600;SDS011;14241;49.260;10.496;2023-06-14T07:01:07;7.70;;;4.00;;
26600;SDS011;14241;49.260;10.496;2023-06-14T07:03:34;5.70;;;3.90;;
26600;SDS011;14241;49.260;10.496;2023-06-14T07:05:59;4.60;;;4.05;;
26600;SDS011;14241;49.260;10.496;2023-06-14T07:08:24;6.38;;;4.13;;
26600;SDS011;14241;49.260;10.496;2023-06-14T07:10:50;7.03;;;3.60;;
26600;SDS011;14241;49.260;10.496;2023-06-14T07:13:15;5.80;;;3.55;;
26600;SDS011;14241;49.260;10.496;2023-06-14T07:15:40;8.17;;;3.80;;
26600;SDS011;14241;49.260;10.496;2023-06-14T07:18:06;8.88;;;3.83;;
26600;SDS011;14241;49.260;10.496;2023-06-14T07:20:32;9.15;;;4.45;;
26600;SDS011;14241;49.260;10.496;2023-06-14T07:22:58;4.55;;;3.50;;
26600;SDS011;14241;49.260;10.496;2023-06-14T07:25:23;6.07;;;3.25;;
26600;SDS011;14241;49.260;10.496;2023-06-14T07:27:48;5.68;;;3.63;;
26600;SDS011;14241;49.260;10.496;2023-06-14T07:30:13;5.35;;;3.58;;
26600;SDS011;14241;49.260;10.496;2023-06-14T07:32:39;5.88;;;3.47;;
26600;SDS011;14241;49.260;10.496;2023-06-14T07:35:04;5.68;;;3.90;;
26600;SDS011;14241;49.260;10.496;2023-06-14T07:37:30;5.05;;;3.78;;
26600;SDS011;14241;49.260;10.496;2023-06-14T07:39:56;5.32;;;3.75;;
26600;SDS011;14241;49.260;10.496;2023-06-14T07:42:21;9.03;;;3.87;;
26600;SDS011;14241;49.260;10.496;2023-06-14T07:44:46;6.85;;;3.55;;
26600;SDS011;14241;49.260;10.496;2023-06-14T07:47:11;5.15;;;3.40;;
26600;SDS011;14241;49.260;10.496;2023-06-14T07:49:37;4.30;;;3.00;;
26600;SDS011;14241;49.260;10.496;2023-06-14T07:52:02;6.85;;;3.05;;
26600;SDS011;14241;49.260;10.496;2023-06-14T07:54:28;5.78;;;3.60;;
26600;SDS011;14241;49.260;10.496;2023-06-14T07:56:53;5.43;;;3.15;;
26600;SDS011;14241;49.260;10.496;2023-06-14T07:59:18;4.50;;;2.70;;
26600;SDS011;14241;49.260;10.496;2023-06-14T08:01:44;7.43;;;3.72;;
26600;SDS011;14241;49.260;10.496;2023-06-14T08:04:12;5.65;;;3.10;;
26600;SDS011;14241;49.260;10.496;2023-06-14T08:06:37;4.13;;;2.90;;
26600;SDS011;14241;49.260;10.496;2023-06-14T08:09:03;5.73;;;3.33;;
26600;SDS011;14241;49.260;10.496;2023-06-14T08:11:28;5.37;;;3.27;;
26600;SDS011;14241;49.260;10.496;2023-06-14T08:13:53;4.07;;;2.90;;
26600;SDS011;14241;49.260;10.496;2023-06-14T08:16:18;5.57;;;3.10;;
26600;SDS011;14241;49.260;10.496;2023-06-14T08:18:44;9.05;;;3.35;;
26600;SDS011;14241;49.260;10.496;2023-06-14T08:21:09;3.20;;;2.70;;
26600;SDS011;14241;49.260;10.496;2023-06-14T08:23:34;4.93;;;2.70;;
26600;SDS011;14241;49.260;10.496;2023-06-14T08:26:01;4.35;;;3.15;;
26600;SDS011;14241;49.260;10.496;2023-06-14T08:28:29;9.30;;;3.50;;
26600;SDS011;14241;49.260;10.496;2023-06-14T08:30:54;3.83;;;2.85;;
26600;SDS011;14241;49.260;10.496;2023-06-14T08:33:20;5.47;;;2.83;;
26600;SDS011;14241;49.260;10.496;2023-06-14T08:35:45;3.97;;;2.67;;
26600;SDS011;14241;49.260;10.496;2023-06-14T08:38:11;5.73;;;3.20;;
26600;SDS011;14241;49.260;10.496;2023-06-14T08:40:37;6.22;;;2.92;;
26600;SDS011;14241;49.260;10.496;2023-06-14T08:43:05;4.30;;;2.83;;
26600;SDS011;14241;49.260;10.496;2023-06-14T08:45:31;3.53;;;2.80;;
26600;SDS011;14241;49.260;10.496;2023-06-14T08:47:56;3.38;;;2.60;;
26600;SDS011;14241;49.260;10.496;2023-06-14T08:50:24;7.13;;;3.30;;
26600;SDS011;14241;49.260;10.496;2023-06-14T08:53:00;5.75;;;3.00;;
26600;SDS011;14241;49.260;10.496;2023-06-14T08:55:27;3.88;;;2.78;;
26600;SDS011;14241;49.260;10.496;2023-06-14T08:57:56;4.30;;;2.83;;
26600;SDS011;14241;49.260;10.496;2023-06-14T09:00:24;3.95;;;3.20;;
26600;SDS011;14241;49.260;10.496;2023-06-14T09:02:50;3.78;;;2.50;;
26600;SDS011;14241;49.260;10.496;2023-06-14T09:05:22;3.90;;;2.90;;
26600;SDS011;14241;49.260;10.496;2023-06-14T09:07:48;6.05;;;2.97;;
26600;SDS011;14241;49.260;10.496;2023-06-14T09:10:15;6.43;;;2.70;;
26600;SDS011;14241;49.260;10.496;2023-06-14T09:12:41;4.15;;;2.90;;
26600;SDS011;14241;49.260;10.496;2023-06-14T09:15:06;4.30;;;2.90;;
26600;SDS011;14241;49.260;10.496;2023-06-14T09:17:34;5.88;;;3.15;;
26600;SDS011;14241;49.260;10.496;2023-06-14T09:20:01;4.47;;;2.90;;
26600;SDS011;14241;49.260;10.496;2023-06-14T09:22:29;4.90;;;2.88;;
26600;SDS011;14241;49.260;10.496;2023-06-14T09:24:54;5.03;;;2.72;;
26600;SDS011;14241;49.260;10.496;2023-06-14T09:27:19;6.67;;;3.23;;
26600;SDS011;14241;49.260;10.496;2023-06-14T09:29:44;2.97;;;2.50;;
26600;SDS011;14241;49.260;10.496;2023-06-14T09:32:10;5.57;;;3.23;;
26600;SDS011;14241;49.260;10.496;2023-06-14T09:34:35;4.50;;;2.92;;
26600;SDS011;14241;49.260;10.496;2023-06-14T09:37:01;7.65;;;3.20;;
26600;SDS011;14241;49.260;10.496;2023-06-14T09:39:26;3.95;;;2.70;;
26600;SDS011;14241;49.260;10.496;2023-06-14T09:41:52;6.57;;;2.83;;
26600;SDS011;14241;49.260;10.496;2023-06-14T09:44:17;7.30;;;2.67;;
26600;SDS011;14241;49.260;10.496;2023-06-14T09:46:43;5.85;;;2.78;;
26600;SDS011;14241;49.260;10.496;2023-06-14T09:49:09;6.25;;;2.58;;
26600;SDS011;14241;49.260;10.496;2023-06-14T09:51:34;4.25;;;2.55;;
26600;SDS011;14241;49.260;10.496;2023-06-14T09:54:02;4.20;;;2.30;;
26600;SDS011;14241;49.260;10.496;2023-06-14T09:56:30;3.58;;;2.50;;
26600;SDS011;14241;49.260;10.496;2023-06-14T09:58:56;3.60;;;2.80;;
26600;SDS011;14241;49.260;10.496;2023-06-14T10:01:25;2.97;;;2.50;;
26600;SDS011;14241;49.260;10.496;2023-06-14T10:03:54;5.95;;;2.53;;
26600;SDS011;14241;49.260;10.496;2023-06-14T10:06:20;4.03;;;2.90;;
26600;SDS011;14241;49.260;10.496;2023-06-14T10:08:49;4.00;;;2.97;;
26600;SDS011;14241;49.260;10.496;2023-06-14T10:11:15;6.20;;;2.40;;
26600;SDS011;14241;49.260;10.496;2023-06-14T10:13:41;2.60;;;2.22;;
26600;SDS011;14241;49.260;10.496;2023-06-14T10:16:15;5.07;;;2.80;;
26600;SDS011;14241;49.260;10.496;2023-06-14T10:18:49;3.38;;;2.30;;
26600;SDS011;14241;49.260;10.496;2023-06-14T10:21:18;3.90;;;2.58;;
26600;SDS011;14241;49.260;10.496;2023-06-14T10:23:46;3.53;;;2.50;;
26600;SDS011;14241;49.260;10.496;2023-06-14T10:26:21;5.70;;;2.38;;
26600;SDS011;14241;49.260;10.496;2023-06-14T10:29:00;3.15;;;2.60;;
26600;SDS011;14241;49.260;10.496;2023-06-14T10:31:45;6.05;;;2.63;;
26600;SDS011;14241;49.260;10.496;2023-06-14T10:34:11;4.20;;;2.50;;
26600;SDS011;14241;49.260;10.496;2023-06-14T10:36:37;3.75;;;2.38;;
26600;SDS011;14241;49.260;10.496;2023-06-14T10:41:29;8.13;;;2.77;;
26600;SDS011;14241;49.260;10.496;2023-06-14T10:44:10;3.55;;;2.50;;
26600;SDS011;14241;49.260;10.496;2023-06-14T10:46:35;8.48;;;2.60;;
26600;SDS011;14241;49.260;10.496;2023-06-14T10:49:01;4.43;;;2.75;;
26600;SDS011;14241;49.260;10.496;2023-06-14T10:51:29;4.93;;;2.67;;
26600;SDS011;14241;49.260;10.496;2023-06-14T10:53:55;5.07;;;2.33;;
26600;SDS011;14241;49.260;10.496;2023-06-14T10:56:26;9.93;;;2.45;;
26600;SDS011;14241;49.260;10.496;2023-06-14T10:58:51;3.25;;;2.58;;
26600;SDS011;14241;49.260;10.496;2023-06-14T11:01:19;5.95;;;2.88;;
26600;SDS011;14241;49.260;10.496;2023-06-14T11:03:51;11.35;;;2.80;;
26600;SDS011;14241;49.260;10.496;2023-06-14T11:06:17;6.25;;;2.60;;
26600;SDS011;14241;49.260;10.496;2023-06-14T11:11:21;4.07;;;2.72;;
26600;SDS011;14241;49.260;10.496;2023-06-14T11:13:47;3.80;;;2.47;;
26600;SDS011;14241;49.260;10.496;2023-06-14T11:18:38;7.20;;;2.47;;
26600;SDS011;14241;49.260;10.496;2023-06-14T11:21:03;5.80;;;2.83;;
26600;SDS011;14241;49.260;10.496;2023-06-14T11:23:28;3.15;;;2.45;;
26600;SDS011;14241;49.260;10.496;2023-06-14T11:25:54;2.40;;;2.13;;
26600;SDS011;14241;49.260;10.496;2023-06-14T11:28:19;3.65;;;2.40;;
26600;SDS011;14241;49.260;10.496;2023-06-14T11:30:46;8.05;;;2.92;;
26600;SDS011;14241;49.260;10.496;2023-06-14T11:33:16;7.90;;;3.20;;
26600;SDS011;14241;49.260;10.496;2023-06-14T11:35:42;3.63;;;2.38;;
26600;SDS011;14241;49.260;10.496;2023-06-14T11:38:07;4.40;;;2.53;;
26600;SDS011;14241;49.260;10.496;2023-06-14T11:40:34;6.05;;;2.90;;
26600;SDS011;14241;49.260;10.496;2023-06-14T11:43:02;3.55;;;2.40;;
26600;SDS011;14241;49.260;10.496;2023-06-14T11:45:28;3.80;;;2.63;;
26600;SDS011;14241;49.260;10.496;2023-06-14T11:47:54;3.95;;;2.63;;
26600;SDS011;14241;49.260;10.496;2023-06-14T11:50:21;2.85;;;2.20;;
26600;SDS011;14241;49.260;10.496;2023-06-14T11:52:51;3.40;;;2.90;;
26600;SDS011;14241;49.260;10.496;2023-06-14T11:55:17;3.42;;;2.95;;
26600;SDS011;14241;49.260;10.496;2023-06-14T11:57:42;5.27;;;2.97;;
26600;SDS011;14241;49.260;10.496;2023-06-14T12:00:08;10.05;;;2.75;;
26600;SDS011;14241;49.260;10.496;2023-06-14T12:02:37;4.07;;;2.70;;
26600;SDS011;14241;49.260;10.496;2023-06-14T12:05:05;3.58;;;2.53;;
26600;SDS011;14241;49.260;10.496;2023-06-14T12:07:34;7.90;;;2.88;;
26600;SDS011;14241;49.260;10.496;2023-06-14T12:12:25;4.95;;;2.80;;
26600;SDS011;14241;49.260;10.496;2023-06-14T12:14:51;5.00;;;2.42;;
26600;SDS011;14241;49.260;10.496;2023-06-14T12:17:17;3.70;;;2.55;;
26600;SDS011;14241;49.260;10.496;2023-06-14T12:19:43;2.95;;;2.60;;
26600;SDS011;14241;49.260;10.496;2023-06-14T12:22:14;6.15;;;2.95;;
26600;SDS011;14241;49.260;10.496;2023-06-14T12:24:42;4.60;;;2.60;;
26600;SDS011;14241;49.260;10.496;2023-06-14T12:27:08;5.07;;;2.75;;
26600;SDS011;14241;49.260;10.496;2023-06-14T12:29:33;5.70;;;2.42;;
26600;SDS011;14241;49.260;10.496;2023-06-14T12:31:59;4.47;;;2.60;;
26600;SDS011;14241;49.260;10.496;2023-06-14T12:34:24;6.63;;;2.80;;
26600;SDS011;14241;49.260;10.496;2023-06-14T12:36:50;3.50;;;2.50;;
26600;SDS011;14241;49.260;10.496;2023-06-14T12:39:15;4.07;;;2.63;;
26600;SDS011;14241;49.260;10.496;2023-06-14T12:41:40;8.73;;;2.90;;
26600;SDS011;14241;49.260;10.496;2023-06-14T12:44:06;5.32;;;2.70;;
26600;SDS011;14241;49.260;10.496;2023-06-14T12:46:32;2.97;;;2.50;;
26600;SDS011;14241;49.260;10.496;2023-06-14T12:48:57;4.30;;;2.30;;
26600;SDS011;14241;49.260;10.496;2023-06-14T12:51:23;10.80;;;2.67;;
26600;SDS011;14241;49.260;10.496;2023-06-14T12:53:48;3.78;;;2.28;;
26600;SDS011;14241;49.260;10.496;2023-06-14T12:56:14;6.53;;;2.72;;
26600;SDS011;14241;49.260;10.496;2023-06-14T12:58:39;7.95;;;2.95;;
26600;SDS011;14241;49.260;10.496;2023-06-14T13:01:04;8.10;;;3.03;;
26600;SDS011;14241;49.260;10.496;2023-06-14T13:03:29;3.27;;;2.50;;
26600;SDS011;14241;49.260;10.496;2023-06-14T13:05:55;5.85;;;2.70;;
26600;SDS011;14241;49.260;10.496;2023-06-14T13:08:20;6.82;;;2.50;;
26600;SDS011;14241;49.260;10.496;2023-06-14T13:10:45;4.85;;;2.47;;
26600;SDS011;14241;49.260;10.496;2023-06-14T13:13:11;6.88;;;3.03;;
26600;SDS011;14241;49.260;10.496;2023-06-14T13:15:37;11.00;;;2.70;;
26600;SDS011;14241;49.260;10.496;2023-06-14T13:18:03;4.53;;;2.78;;
26600;SDS011;14241;49.260;10.496;2023-06-14T13:20:28;5.03;;;2.45;;
26600;SDS011;14241;49.260;10.496;2023-06-14T13:22:54;6.97;;;2.90;;
26600;SDS011;14241;49.260;10.496;2023-06-14T13:25:19;5.57;;;2.63;;
26600;SDS011;14241;49.260;10.496;2023-06-14T13:27:44;6.72;;;2.50;;
26600;SDS011;14241;49.260;10.496;2023-06-14T13:30:10;4.07;;;2.73;;
26600;SDS011;14241;49.260;10.496;2023-06-14T13:32:35;6.30;;;2.63;;
26600;SDS011;14241;49.260;10.496;2023-06-14T13:35:01;7.18;;;2.70;;
26600;SDS011;14241;49.260;10.496;2023-06-14T13:37:26;4.07;;;2.83;;
26600;SDS011;14241;49.260;10.496;2023-06-14T13:39:51;4.13;;;2.80;;
26600;SDS011;14241;49.260;10.496;2023-06-14T13:42:16;4.70;;;2.93;;
26600;SDS011;14241;49.260;10.496;2023-06-14T13:44:41;3.93;;;2.70;;
26600;SDS011;14241;49.260;10.496;2023-06-14T13:47:07;4.88;;;2.83;;
26600;SDS011;14241;49.260;10.496;2023-06-14T13:49:32;3.30;;;2.42;;
26600;SDS011;14241;49.260;10.496;2023-06-14T13:52:00;2.85;;;2.50;;
26600;SDS011;14241;49.260;10.496;2023-06-14T13:54:25;5.45;;;2.70;;
26600;SDS011;14241;49.260;10.496;2023-06-14T13:56:51;4.45;;;2.50;;
26600;SDS011;14241;49.260;10.496;2023-06-14T13:59:16;5.00;;;2.47;;
26600;SDS011;14241;49.260;10.496;2023-06-14T14:01:42;4.33;;;2.80;;
26600;SDS011;14241;49.260;10.496;2023-06-14T14:04:07;4.07;;;2.67;;
26600;SDS011;14241;49.260;10.496;2023-06-14T14:06:32;4.88;;;2.72;;
26600;SDS011;14241;49.260;10.496;2023-06-14T14:08:57;6.37;;;2.67;;
26600;SDS011;14241;49.260;10.496;2023-06-14T14:11:23;6.95;;;2.50;;
26600;SDS011;14241;49.260;10.496;2023-06-14T14:13:48;3.47;;;2.55;;
26600;SDS011;14241;49.260;10.496;2023-06-14T14:16:14;3.38;;;2.35;;
26600;SDS011;14241;49.260;10.496;2023-06-14T14:18:39;3.85;;;2.90;;
26600;SDS011;14241;49.260;10.496;2023-06-14T14:21:05;4.87;;;2.57;;
26600;SDS011;14241;49.260;10.496;2023-06-14T14:23:30;3.60;;;2.67;;
26600;SDS011;14241;49.260;10.496;2023-06-14T14:25:55;4.53;;;2.60;;
26600;SDS011;14241;49.260;10.496;2023-06-14T14:28:21;3.85;;;2.58;;
26600;SDS011;14241;49.260;10.496;2023-06-14T14:30:46;3.73;;;2.70;;
26600;SDS011;14241;49.260;10.496;2023-06-14T14:33:13;9.18;;;3.33;;
26600;SDS011;14241;49.260;10.496;2023-06-14T14:35:44;6.65;;;2.90;;
26600;SDS011;14241;49.260;10.496;2023-06-14T14:38:12;4.22;;;2.72;;
26600;SDS011;14241;49.260;10.496;2023-06-14T14:40:38;6.50;;;2.83;;